createdAt,value
2022-10-25T00:00:32.317Z,17.70
2022-10-25T00:03:26.312Z,17.70
2022-10-25T00:06:10.561Z,17.70
2022-10-25T00:08:58.311Z,17.80
2022-10-25T00:11:39.037Z,17.70
2022-10-25T00:14:27.323Z,17.70
2022-10-25T00:17:08.042Z,17.70
2022-10-25T00:19:54.340Z,17.70
2022-10-25T00:22:42.330Z,17.70
2022-10-25T00:25:23.639Z,17.70
2022-10-25T00:28:11.338Z,17.70
2022-10-25T00:30:58.347Z,17.70
2022-10-25T00:33:49.338Z,17.70
2022-10-25T00:36:33.409Z,17.70
2022-10-25T00:39:20.355Z,17.70
2022-10-25T00:42:00.402Z,17.70
2022-10-25T00:44:47.457Z,17.70
2022-10-25T00:47:27.466Z,17.70
2022-10-25T00:50:27.352Z,17.70
2022-10-25T00:53:26.353Z,17.70
2022-10-25T00:56:18.878Z,17.60
2022-10-25T00:59:13.357Z,17.70
2022-10-25T01:01:56.195Z,17.70
2022-10-25T01:04:46.387Z,17.70
2022-10-25T01:07:33.389Z,17.60
2022-10-25T01:10:14.371Z,17.70
2022-10-25T01:13:01.361Z,17.60
2022-10-25T01:15:59.420Z,17.60
2022-10-25T01:19:25.590Z,17.60
2022-10-25T01:22:59.375Z,17.60
2022-10-25T01:25:51.974Z,17.60
2022-10-25T01:28:51.365Z,17.60
2022-10-25T01:32:04.519Z,17.60
2022-10-25T01:35:10.359Z,17.60
2022-10-25T01:38:19.369Z,17.50
2022-10-25T01:41:21.486Z,17.50
2022-10-25T01:44:56.388Z,17.50
2022-10-25T01:47:55.359Z,17.50
2022-10-25T01:50:42.282Z,17.60
2022-10-25T01:53:29.386Z,17.60
2022-10-25T01:56:12.087Z,17.60
2022-10-25T01:59:13.396Z,17.50
2022-10-25T02:02:16.734Z,17.50
2022-10-25T02:05:39.392Z,17.50
2022-10-25T02:08:35.395Z,17.50
2022-10-25T02:11:36.465Z,17.50
2022-10-25T02:14:33.571Z,17.50
2022-10-25T02:17:26.479Z,17.50
2022-10-25T02:20:22.391Z,17.50
2022-10-25T02:23:12.390Z,17.50
2022-10-25T02:25:54.822Z,17.50
2022-10-25T02:28:47.479Z,17.50
2022-10-25T02:31:31.451Z,17.50
2022-10-25T02:34:18.395Z,17.50
2022-10-25T02:36:59.496Z,17.50
2022-10-25T02:39:47.400Z,17.50
2022-10-25T02:42:27.551Z,17.60
2022-10-25T02:45:19.526Z,17.50
2022-10-25T02:48:07.410Z,17.50
2022-10-25T02:50:48.986Z,17.50
2022-10-25T02:53:35.408Z,17.50
2022-10-25T02:56:20.137Z,17.50
2022-10-25T02:59:10.391Z,17.50
2022-10-25T03:01:51.187Z,17.50
2022-10-25T03:04:37.403Z,17.50
2022-10-25T03:07:18.034Z,17.50
2022-10-25T03:10:04.462Z,17.50
2022-10-25T03:12:45.424Z,17.50
2022-10-25T03:15:32.406Z,17.50
2022-10-25T03:18:21.425Z,17.50
2022-10-25T03:21:07.626Z,17.40
2022-10-25T03:23:54.420Z,17.40
2022-10-25T03:26:34.504Z,17.50
2022-10-25T03:29:21.428Z,17.40
2022-10-25T03:32:01.535Z,17.40
2022-10-25T03:34:48.418Z,17.40
2022-10-25T03:37:28.503Z,17.40
2022-10-25T03:40:16.442Z,17.40
2022-10-25T03:42:56.506Z,17.40
2022-10-25T03:45:43.446Z,17.40
2022-10-25T03:48:30.442Z,17.40
2022-10-25T03:51:11.065Z,17.40
2022-10-25T03:53:57.442Z,17.30
2022-10-25T03:56:38.067Z,17.30
2022-10-25T03:59:24.456Z,17.40
2022-10-25T04:02:05.190Z,17.30
2022-10-25T04:04:52.442Z,17.30
2022-10-25T04:07:39.470Z,17.30
2022-10-25T04:10:34.450Z,17.30
2022-10-25T04:13:21.449Z,17.30
2022-10-25T04:16:08.465Z,17.30
2022-10-25T04:18:59.467Z,17.20
2022-10-25T04:21:39.555Z,17.30
2022-10-25T04:24:26.499Z,17.20
2022-10-25T04:27:06.573Z,17.20
2022-10-25T04:29:53.475Z,17.20
2022-10-25T04:32:40.479Z,17.20
2022-10-25T04:35:27.464Z,17.20
2022-10-25T04:38:14.476Z,17.20
2022-10-25T04:40:57.340Z,17.20
2022-10-25T04:43:43.467Z,17.20
2022-10-25T04:46:24.235Z,17.20
2022-10-25T04:49:10.462Z,17.20
2022-10-25T04:54:42.472Z,17.10
2022-10-25T04:57:23.193Z,17.10
2022-10-25T05:00:09.505Z,17.10
2022-10-25T05:03:01.509Z,17.00
2022-10-25T05:05:41.522Z,17.10
2022-10-25T05:08:28.471Z,17.10
2022-10-25T05:11:08.554Z,17.10
2022-10-25T05:13:55.502Z,17.10
2022-10-25T05:16:35.601Z,17.10
2022-10-25T05:19:22.506Z,17.10
2022-10-25T05:22:02.562Z,17.10
2022-10-25T05:24:49.509Z,17.00
2022-10-25T05:27:36.531Z,17.00
2022-10-25T05:30:38.525Z,17.00
2022-10-25T05:33:25.523Z,16.90
2022-10-25T05:36:08.537Z,16.90
2022-10-25T05:38:55.511Z,16.90
2022-10-25T05:41:37.319Z,16.90
2022-10-25T05:44:25.507Z,16.90
2022-10-25T05:47:05.818Z,16.90
2022-10-25T05:49:52.510Z,16.90
2022-10-25T05:52:39.519Z,16.90
2022-10-25T05:55:20.127Z,16.90
2022-10-25T05:58:06.529Z,16.80
2022-10-25T06:00:47.164Z,16.80
2022-10-25T06:03:33.534Z,16.80
2022-10-25T06:06:14.913Z,16.70
2022-10-25T06:09:01.514Z,16.70
2022-10-25T06:11:42.245Z,16.70
2022-10-25T06:14:28.706Z,16.70
2022-10-25T06:17:09.149Z,16.70
2022-10-25T06:19:55.511Z,16.70
2022-10-25T06:22:42.536Z,16.70
2022-10-25T06:25:22.586Z,16.70
2022-10-25T06:28:10.512Z,16.70
2022-10-25T06:30:50.588Z,16.70
2022-10-25T06:33:38.520Z,16.70
2022-10-25T06:36:31.275Z,16.70
2022-10-25T06:39:17.527Z,16.70
2022-10-25T06:42:04.555Z,16.80
2022-10-25T06:44:52.526Z,16.80
2022-10-25T06:47:39.738Z,16.80
2022-10-25T06:50:20.248Z,16.80
2022-10-25T06:53:06.535Z,16.80
2022-10-25T06:55:49.428Z,16.80
2022-10-25T06:58:35.534Z,16.80
2022-10-25T07:01:19.527Z,16.80
2022-10-25T07:04:07.553Z,16.90
2022-10-25T07:06:55.534Z,16.90
2022-10-25T07:09:42.572Z,16.90
2022-10-25T07:12:29.577Z,16.90
2022-10-25T07:15:10.684Z,17.00
2022-10-25T07:18:00.547Z,17.00
2022-10-25T07:20:40.624Z,17.00
2022-10-25T07:23:27.582Z,17.00
2022-10-25T07:26:07.615Z,17.00
2022-10-25T07:28:57.580Z,17.00
2022-10-25T07:31:56.567Z,17.10
2022-10-25T07:34:37.252Z,17.10
2022-10-25T07:37:23.619Z,17.10
2022-10-25T07:40:04.881Z,17.10
2022-10-25T07:42:51.599Z,17.20
2022-10-25T07:45:38.621Z,17.20
2022-10-25T07:48:18.579Z,17.20
2022-10-25T07:51:14.495Z,17.30
2022-10-25T07:54:00.619Z,17.30
2022-10-25T07:56:41.195Z,17.30
2022-10-25T07:59:28.589Z,17.30
2022-10-25T08:02:25.491Z,17.30
2022-10-25T08:05:05.696Z,17.30
2022-10-25T08:07:52.597Z,17.30
2022-10-25T08:10:32.628Z,17.40
2022-10-25T08:13:19.613Z,17.40
2022-10-25T08:16:02.729Z,17.40
2022-10-25T08:18:50.592Z,17.40
2022-10-25T08:21:30.663Z,17.40
2022-10-25T08:24:17.611Z,17.40
2022-10-25T08:26:57.930Z,17.50
2022-10-25T08:29:45.598Z,17.50
2022-10-25T08:32:32.623Z,17.50
2022-10-25T08:35:13.387Z,17.50
2022-10-25T08:37:59.608Z,17.60
2022-10-25T08:41:14.708Z,17.60
2022-10-25T08:44:20.623Z,17.60
2022-10-25T08:47:20.174Z,17.70
2022-10-25T08:50:19.636Z,17.80
2022-10-25T08:53:12.603Z,17.80
2022-10-25T08:56:11.510Z,17.90
2022-10-25T08:59:08.626Z,18.00
2022-10-25T09:02:00.934Z,18.00
2022-10-25T09:04:47.614Z,18.10
2022-10-25T09:07:52.633Z,18.10
2022-10-25T09:10:47.333Z,18.20
2022-10-25T09:13:59.648Z,18.30
2022-10-25T09:17:23.873Z,18.30
2022-10-25T09:20:40.629Z,18.30
2022-10-25T09:23:38.614Z,18.40
2022-10-25T09:26:37.701Z,18.40
2022-10-25T09:29:39.757Z,18.50
2022-10-25T09:32:38.641Z,18.50
2022-10-25T09:35:32.919Z,18.60
2022-10-25T09:39:05.675Z,18.60
2022-10-25T09:41:52.647Z,18.70
2022-10-25T09:44:49.674Z,18.70
2022-10-25T09:48:10.645Z,18.80
2022-10-25T09:51:05.668Z,18.80
2022-10-25T09:53:53.649Z,18.90
2022-10-25T09:56:33.748Z,19.00
2022-10-25T09:59:22.674Z,19.00
2022-10-25T10:02:02.913Z,19.00
2022-10-25T10:04:49.680Z,19.00
2022-10-25T10:07:50.946Z,19.00
2022-10-25T10:10:35.465Z,19.00
2022-10-25T10:13:39.666Z,19.10
2022-10-25T10:16:35.479Z,19.10
2022-10-25T10:19:40.683Z,19.10
2022-10-25T10:22:21.703Z,19.10
2022-10-25T10:25:15.685Z,19.10
2022-10-25T10:28:04.729Z,19.10
2022-10-25T10:30:45.759Z,19.10
2022-10-25T10:33:38.678Z,19.20
2022-10-25T10:36:33.795Z,19.20
2022-10-25T10:39:30.708Z,19.20
2022-10-25T10:42:43.692Z,19.20
2022-10-25T10:45:24.388Z,19.20
2022-10-25T10:48:11.685Z,19.20
2022-10-25T10:50:52.635Z,19.30
2022-10-25T10:53:41.694Z,19.30
2022-10-25T10:56:28.361Z,19.30
2022-10-25T10:59:14.724Z,19.40
2022-10-25T11:01:56.444Z,19.40
2022-10-25T11:04:42.704Z,19.40
2022-10-25T11:07:36.687Z,19.40
2022-10-25T11:10:45.696Z,19.40
2022-10-25T11:13:34.674Z,19.50
2022-10-25T11:16:45.793Z,19.50
2022-10-25T11:20:06.685Z,19.50
2022-10-25T11:23:16.728Z,19.50
2022-10-25T11:26:49.568Z,19.50
2022-10-25T11:30:25.699Z,19.60
2022-10-25T11:33:54.891Z,19.60
2022-10-25T11:37:10.788Z,19.60
2022-10-25T11:40:24.708Z,19.70
2022-10-25T11:44:00.526Z,19.70
2022-10-25T11:47:01.293Z,19.70
2022-10-25T11:50:08.818Z,19.80
2022-10-25T11:53:49.721Z,19.80
2022-10-25T11:57:09.810Z,19.90
2022-10-25T12:00:10.710Z,19.90
2022-10-25T12:03:41.720Z,20.00
2022-10-25T12:06:51.962Z,20.00
2022-10-25T12:10:19.722Z,20.00
2022-10-25T12:13:35.727Z,20.10
2022-10-25T12:16:24.806Z,20.20
2022-10-25T12:19:33.727Z,20.20
2022-10-25T12:22:22.843Z,20.30
2022-10-25T12:25:25.758Z,20.30
2022-10-25T12:28:32.757Z,20.30
2022-10-25T12:31:19.681Z,20.30
2022-10-25T12:34:17.743Z,20.30
2022-10-25T12:37:08.368Z,20.30
2022-10-25T12:39:58.763Z,20.40
2022-10-25T12:42:49.050Z,20.40
2022-10-25T12:46:19.736Z,20.40
2022-10-25T12:49:39.775Z,20.40
2022-10-25T12:52:51.058Z,20.40
2022-10-25T12:56:03.767Z,20.50
2022-10-25T12:59:15.746Z,20.50
2022-10-25T13:02:17.244Z,20.50
2022-10-25T13:05:46.751Z,20.50
2022-10-25T13:08:35.751Z,20.60
2022-10-25T13:11:17.812Z,20.60
2022-10-25T13:14:04.887Z,20.60
2022-10-25T13:16:44.827Z,20.60
2022-10-25T13:19:54.606Z,20.70
2022-10-25T13:22:42.832Z,20.70
2022-10-25T13:25:38.817Z,20.70
2022-10-25T13:28:31.566Z,20.80
2022-10-25T13:31:35.690Z,20.80
2022-10-25T13:34:25.796Z,20.90
2022-10-25T13:37:30.817Z,20.90
2022-10-25T13:40:31.779Z,20.90
2022-10-25T13:43:27.812Z,20.90
2022-10-25T13:46:07.859Z,20.90
2022-10-25T13:48:55.780Z,20.90
2022-10-25T13:51:39.041Z,20.90
2022-10-25T13:54:25.819Z,20.90
2022-10-25T13:57:05.827Z,20.90
2022-10-25T14:03:19.820Z,20.80
2022-10-25T14:06:00.374Z,20.80
2022-10-25T14:09:35.991Z,20.80
2022-10-25T14:12:20.421Z,20.70
2022-10-25T14:15:26.778Z,20.70
2022-10-25T14:18:21.835Z,20.70
2022-10-25T14:21:11.850Z,20.70
2022-10-25T14:23:59.796Z,20.70
2022-10-25T14:26:40.864Z,20.70
2022-10-25T14:29:31.823Z,20.60
2022-10-25T14:32:18.863Z,20.70
2022-10-25T14:35:05.802Z,20.60
2022-10-25T14:37:59.822Z,20.70
2022-10-25T14:40:46.834Z,20.60
2022-10-25T14:43:41.872Z,20.60
2022-10-25T14:46:25.770Z,20.60
2022-10-25T14:49:23.802Z,20.60
2022-10-25T14:52:07.942Z,20.60
2022-10-25T14:54:57.881Z,20.60
2022-10-25T14:57:44.865Z,20.50
2022-10-25T15:00:37.992Z,20.50
2022-10-25T15:03:18.577Z,20.40
2022-10-25T15:06:05.842Z,20.40
2022-10-25T15:09:00.781Z,20.40
2022-10-25T15:12:25.103Z,20.30
2022-10-25T15:15:45.018Z,20.20
2022-10-25T15:18:40.970Z,20.20
2022-10-25T15:21:21.515Z,20.10
2022-10-25T15:24:33.856Z,20.00
2022-10-25T15:27:36.558Z,19.90
2022-10-25T15:30:56.892Z,19.80
2022-10-25T15:33:44.059Z,19.70
2022-10-25T15:36:34.910Z,19.70
2022-10-25T15:39:36.919Z,19.60
2022-10-25T15:42:17.130Z,19.50
2022-10-25T15:45:06.859Z,19.40
2022-10-25T15:47:49.988Z,19.30
2022-10-25T15:50:36.852Z,19.20
2022-10-25T15:53:25.854Z,19.20
2022-10-25T15:56:11.827Z,19.10
2022-10-25T15:58:58.866Z,19.00
2022-10-25T16:01:44.115Z,18.90
2022-10-25T16:04:32.854Z,18.80
2022-10-25T16:07:15.098Z,18.70
2022-10-25T16:10:01.881Z,18.60
2022-10-25T16:12:46.913Z,18.50
2022-10-25T16:15:33.926Z,18.50
2022-10-25T16:18:20.907Z,18.30
2022-10-25T16:21:01.007Z,18.30
2022-10-25T16:23:47.995Z,18.10
2022-10-25T16:26:42.904Z,18.00
2022-10-25T16:29:31.883Z,18.00
2022-10-25T16:32:12.220Z,17.90
2022-10-25T16:34:58.904Z,17.80
2022-10-25T16:37:38.940Z,17.70
2022-10-25T16:40:28.874Z,17.60
2022-10-25T16:43:15.896Z,17.60
2022-10-25T16:45:56.731Z,17.50
2022-10-25T16:48:44.928Z,17.40
2022-10-25T16:51:25.775Z,17.30
2022-10-25T16:54:11.913Z,17.30
2022-10-25T16:56:52.558Z,17.20
2022-10-25T16:59:38.994Z,17.10
2022-10-25T17:02:24.774Z,17.00
2022-10-25T17:05:10.914Z,17.00
2022-10-25T17:07:52.014Z,16.90
2022-10-25T17:10:42.519Z,16.80
2022-10-25T17:13:31.933Z,16.70
2022-10-25T17:16:22.019Z,16.60
2022-10-25T17:19:09.922Z,16.60
2022-10-25T17:21:50.055Z,16.50
2022-10-25T17:24:43.911Z,16.40
2022-10-25T17:27:24.026Z,16.40
2022-10-25T17:30:16.914Z,16.30
2022-10-25T17:32:57.020Z,16.20
2022-10-25T17:35:47.907Z,16.20
2022-10-25T17:38:34.916Z,16.10
2022-10-25T17:41:15.651Z,16.00
2022-10-25T17:44:01.910Z,16.00
2022-10-25T17:49:29.934Z,15.90
2022-10-25T17:52:10.729Z,15.80
2022-10-25T17:54:56.917Z,15.80
2022-10-25T17:57:37.533Z,15.70
2022-10-25T18:00:24.934Z,15.60
2022-10-25T18:03:11.937Z,15.50
2022-10-25T18:05:51.992Z,15.50
2022-10-25T18:08:38.957Z,15.40
2022-10-25T18:11:23.245Z,15.30
2022-10-25T18:14:12.164Z,15.30
2022-10-25T18:16:52.305Z,15.30
2022-10-25T18:19:38.969Z,15.10
2022-10-25T18:22:20.946Z,15.10
2022-10-25T18:25:07.957Z,15.00
2022-10-25T18:27:54.943Z,15.00
2022-10-25T18:30:35.665Z,14.90
2022-10-25T18:33:21.945Z,14.80
2022-10-25T18:36:12.506Z,14.80
2022-10-25T18:39:00.978Z,14.70
2022-10-25T18:41:42.480Z,14.70
2022-10-25T18:44:28.953Z,14.60
2022-10-25T18:47:09.643Z,14.50
2022-10-25T18:49:55.947Z,14.50
2022-10-25T18:52:36.599Z,14.40
2022-10-25T18:55:22.990Z,14.40
2022-10-25T18:58:09.975Z,14.30
2022-10-25T19:00:57.997Z,14.30
2022-10-25T19:03:46.951Z,14.20
2022-10-25T19:06:27.048Z,14.10
2022-10-25T19:09:14.981Z,14.10
2022-10-25T19:11:55.059Z,14.00
2022-10-25T19:14:41.997Z,14.00
2022-10-25T19:17:22.044Z,13.90
2022-10-25T19:20:09.969Z,13.90
2022-10-25T19:22:56.954Z,13.80
2022-10-25T19:25:37.730Z,13.80
2022-10-25T19:28:23.969Z,13.70
2022-10-25T19:31:17.021Z,13.60
2022-10-25T19:34:06.992Z,13.60
2022-10-25T19:36:48.173Z,13.60
2022-10-25T19:39:34.991Z,13.50
2022-10-25T19:42:16.163Z,13.50
2022-10-25T19:45:03.022Z,13.40
2022-10-25T19:47:44.796Z,13.40
2022-10-25T19:50:33.004Z,13.40
2022-10-25T19:53:20.984Z,13.30
2022-10-25T19:56:10.084Z,13.30
2022-10-25T19:58:58.061Z,13.20
2022-10-25T20:01:39.159Z,13.20
2022-10-25T20:04:25.990Z,13.10
2022-10-25T20:07:06.038Z,13.10
2022-10-25T20:09:53.020Z,13.00
2022-10-25T20:12:33.089Z,13.00
2022-10-25T20:15:22.974Z,12.90
2022-10-25T20:18:10.995Z,12.90
2022-10-25T20:21:08.968Z,12.80
2022-10-25T20:23:59.021Z,12.80
2022-10-25T20:26:48.031Z,12.70
2022-10-25T20:29:38.094Z,12.70
2022-10-25T20:32:18.627Z,12.60
2022-10-25T20:37:45.795Z,12.60
2022-10-25T20:40:32.998Z,12.50
2022-10-25T20:43:21.230Z,12.50
2022-10-25T20:46:01.147Z,12.50
2022-10-25T20:48:49.035Z,12.40
2022-10-25T20:51:30.135Z,12.40
2022-10-25T20:54:18.008Z,12.40
2022-10-25T20:56:58.070Z,12.30
2022-10-25T20:59:45.016Z,12.30
2022-10-25T21:02:32.228Z,12.30
2022-10-25T21:05:12.720Z,12.20
2022-10-25T21:07:59.017Z,12.20
2022-10-25T21:10:50.026Z,12.10
2022-10-25T21:13:38.169Z,12.10
2022-10-25T21:16:25.022Z,12.00
2022-10-25T21:19:17.008Z,12.00
2022-10-25T21:22:04.026Z,12.00
2022-10-25T21:24:51.037Z,12.00
2022-10-25T21:27:31.692Z,11.90
2022-10-25T21:30:19.037Z,11.90
2022-10-25T21:33:06.020Z,11.90
2022-10-25T21:35:46.097Z,11.80
2022-10-25T21:38:33.035Z,11.80
2022-10-25T21:41:20.680Z,11.80
2022-10-25T21:46:53.147Z,11.70
2022-10-25T21:49:40.035Z,11.70
2022-10-25T21:52:27.022Z,11.60
2022-10-25T21:55:15.221Z,11.60
2022-10-25T21:58:02.044Z,11.60
2022-10-25T22:00:43.263Z,11.50
2022-10-25T22:03:30.030Z,11.50
2022-10-25T22:06:14.116Z,11.50
2022-10-25T22:09:02.066Z,11.50
2022-10-25T22:11:42.939Z,11.40
2022-10-25T22:14:32.339Z,11.40
2022-10-25T22:17:19.043Z,11.40
2022-10-25T22:19:59.236Z,11.30
2022-10-25T22:22:46.346Z,11.30
2022-10-25T22:25:26.191Z,11.30
2022-10-25T22:28:13.093Z,11.30
2022-10-25T22:30:53.144Z,11.20
2022-10-25T22:33:42.075Z,11.20
2022-10-25T22:36:26.104Z,11.20
2022-10-25T22:39:15.089Z,11.20
2022-10-25T22:41:56.188Z,11.10
2022-10-25T22:44:44.063Z,11.10
2022-10-25T22:47:31.117Z,11.10
2022-10-25T22:50:11.780Z,11.10
2022-10-25T22:52:58.087Z,11.10
2022-10-25T22:55:38.684Z,11.10
2022-10-25T22:58:25.090Z,11.10
2022-10-25T23:01:12.863Z,11.10
2022-10-25T23:04:02.114Z,11.10
2022-10-25T23:06:42.752Z,11.10
2022-10-25T23:09:29.127Z,11.10
2022-10-25T23:12:16.089Z,11.00
2022-10-25T23:14:56.121Z,11.10
2022-10-25T23:17:43.114Z,11.10
2022-10-25T23:20:23.152Z,11.10
2022-10-25T23:23:10.076Z,11.10
2022-10-25T23:25:51.174Z,11.10
2022-10-25T23:28:41.091Z,11.10
2022-10-25T23:31:22.162Z,11.10
2022-10-25T23:34:09.105Z,11.10
2022-10-25T23:36:49.174Z,11.10
2022-10-25T23:39:36.135Z,11.10
2022-10-25T23:42:16.191Z,11.10
2022-10-25T23:45:03.125Z,11.10
2022-10-25T23:47:54.286Z,11.10
2022-10-25T23:50:34.719Z,11.10
2022-10-25T23:53:21.099Z,11.20
2022-10-25T23:56:04.678Z,11.10
2022-10-25T23:58:52.099Z,11.20
